createdAt,value
2018-12-06T00:00:24.823Z,101189.30
2018-12-06T00:03:15.927Z,101187.53
2018-12-06T00:06:06.728Z,101190.14
2018-12-06T00:08:57.680Z,101193.90
2018-12-06T00:11:48.393Z,101191.73
2018-12-06T00:14:38.850Z,101195.12
2018-12-06T00:17:28.791Z,101202.83
2018-12-06T00:20:18.772Z,101207.04
2018-12-06T00:23:08.872Z,101209.78
2018-12-06T00:25:58.717Z,101213.52
2018-12-06T00:28:48.679Z,101213.53
2018-12-06T00:31:38.797Z,101215.07
2018-12-06T00:34:28.823Z,101217.08
2018-12-06T00:37:19.647Z,101215.56
2018-12-06T00:40:09.510Z,101217.48
2018-12-06T00:43:01.110Z,101217.08
2018-12-06T00:45:52.097Z,101228.20
2018-12-06T00:48:42.632Z,101226.97
2018-12-06T00:51:32.588Z,101233.00
2018-12-06T00:54:22.664Z,101236.74
2018-12-06T00:57:12.658Z,101242.89
2018-12-06T01:00:02.741Z,101250.03
2018-12-06T01:02:52.641Z,101250.68
2018-12-06T01:05:42.966Z,101274.55
2018-12-06T01:08:32.649Z,101269.30
2018-12-06T01:11:22.709Z,101270.00
2018-12-06T01:14:13.373Z,101274.19
2018-12-06T01:17:03.402Z,101283.80
2018-12-06T01:19:53.252Z,101289.02
2018-12-06T01:22:44.312Z,101291.27
2018-12-06T01:25:34.268Z,101286.72
2018-12-06T01:28:24.519Z,101285.20
2018-12-06T01:31:14.514Z,101285.31
2018-12-06T01:34:04.607Z,101289.49
2018-12-06T01:36:54.400Z,101298.84
2018-12-06T01:39:44.542Z,101286.68
2018-12-06T01:42:34.552Z,101287.59
2018-12-06T01:45:25.615Z,101280.84
2018-12-06T01:48:15.620Z,101281.33
2018-12-06T01:51:05.732Z,101280.30
2018-12-06T01:53:56.714Z,101276.73
2018-12-06T01:56:46.710Z,101277.34
2018-12-06T01:59:36.787Z,101276.01
2018-12-06T02:02:27.617Z,101276.77
2018-12-06T02:05:18.506Z,101274.16
2018-12-06T02:08:08.580Z,101272.59
2018-12-06T02:10:58.486Z,101275.86
2018-12-06T02:13:48.575Z,101274.75
2018-12-06T02:16:39.553Z,101267.84
2018-12-06T02:19:30.492Z,101267.30
2018-12-06T02:22:21.273Z,101259.06
2018-12-06T02:25:12.099Z,101260.39
2018-12-06T02:28:02.273Z,101259.25
2018-12-06T02:30:53.216Z,101263.05
2018-12-06T02:33:43.188Z,101256.02
2018-12-06T02:36:34.090Z,101263.23
2018-12-06T02:39:24.279Z,101268.52
2018-12-06T02:42:15.188Z,101269.84
2018-12-06T02:45:06.183Z,101272.28
2018-12-06T02:47:57.111Z,101263.63
2018-12-06T02:50:46.952Z,101276.58
2018-12-06T02:53:36.834Z,101273.23
2018-12-06T02:56:27.581Z,101287.25
2018-12-06T02:59:17.460Z,101284.48
2018-12-06T03:02:07.548Z,101284.97
2018-12-06T03:04:57.719Z,101283.63
2018-12-06T03:07:47.611Z,101281.20
2018-12-06T03:10:37.485Z,101283.52
2018-12-06T03:13:28.568Z,101287.77
2018-12-06T03:16:18.594Z,101286.41
2018-12-06T03:19:08.566Z,101287.81
2018-12-06T03:21:58.531Z,101280.80
2018-12-06T03:24:49.483Z,101291.66
2018-12-06T03:27:39.439Z,101284.34
2018-12-06T03:30:29.343Z,101283.91
2018-12-06T03:33:19.423Z,101288.95
2018-12-06T03:36:10.319Z,101291.69
2018-12-06T03:39:00.163Z,101290.98
2018-12-06T03:41:50.114Z,101289.70
2018-12-06T03:44:40.073Z,101291.63
2018-12-06T03:47:30.019Z,101292.09
2018-12-06T03:50:20.000Z,101289.27
2018-12-06T03:53:09.964Z,101300.45
2018-12-06T03:56:00.307Z,101300.63
2018-12-06T03:58:51.217Z,101298.91
2018-12-06T04:01:42.081Z,101298.91
2018-12-06T04:04:32.945Z,101300.01
2018-12-06T04:07:22.771Z,101305.33
2018-12-06T04:10:12.827Z,101308.00
2018-12-06T04:13:02.904Z,101308.33
2018-12-06T04:15:52.867Z,101317.49
2018-12-06T04:18:42.837Z,101311.37
2018-12-06T04:21:32.875Z,101313.86
2018-12-06T04:24:23.035Z,101317.41
2018-12-06T04:27:13.831Z,101324.06
2018-12-06T04:30:03.922Z,101327.97
2018-12-06T04:32:55.923Z,101322.48
2018-12-06T04:35:46.737Z,101333.83
2018-12-06T04:38:36.697Z,101327.98
2018-12-06T04:41:27.764Z,101331.52
2018-12-06T04:44:17.621Z,101331.68
2018-12-06T04:47:07.977Z,101329.14
2018-12-06T04:49:57.900Z,101333.93
2018-12-06T04:52:48.864Z,101334.64
2018-12-06T04:55:39.657Z,101334.28
2018-12-06T04:58:30.147Z,101346.27
2018-12-06T05:01:21.105Z,101337.32
2018-12-06T05:04:11.113Z,101340.08
2018-12-06T05:07:01.267Z,101349.03
2018-12-06T05:09:51.327Z,101348.54
2018-12-06T05:12:41.486Z,101356.31
2018-12-06T05:15:31.458Z,101357.64
2018-12-06T05:18:21.509Z,101359.89
2018-12-06T05:21:11.351Z,101360.67
2018-12-06T05:24:02.343Z,101366.33
2018-12-06T05:26:52.273Z,101366.55
2018-12-06T05:29:42.354Z,101366.97
2018-12-06T05:32:33.426Z,101370.48
2018-12-06T05:35:23.298Z,101375.67
2018-12-06T05:38:13.342Z,101377.94
2018-12-06T05:41:03.431Z,101380.05
2018-12-06T05:43:53.281Z,101387.96
2018-12-06T05:46:43.696Z,101387.25
2018-12-06T05:49:34.396Z,101393.37
2018-12-06T05:52:24.365Z,101389.04
2018-12-06T05:55:14.454Z,101396.65
2018-12-06T05:58:04.349Z,101395.49
2018-12-06T06:00:54.281Z,101400.98
2018-12-06T06:03:44.129Z,101396.59
2018-12-06T06:06:35.508Z,101405.53
2018-12-06T06:09:26.058Z,101399.41
2018-12-06T06:12:16.148Z,101409.75
2018-12-06T06:15:06.259Z,101410.38
2018-12-06T06:17:57.252Z,101409.56
2018-12-06T06:20:48.072Z,101408.84
2018-12-06T06:23:38.100Z,101406.11
2018-12-06T06:26:29.076Z,101412.03
2018-12-06T06:29:19.298Z,101416.36
2018-12-06T06:32:09.133Z,101420.48
2018-12-06T06:35:00.068Z,101422.38
2018-12-06T06:37:50.206Z,101424.19
2018-12-06T06:40:40.231Z,101429.27
2018-12-06T06:43:30.715Z,101425.80
2018-12-06T06:46:21.200Z,101432.33
2018-12-06T06:49:14.037Z,101438.14
2018-12-06T06:52:04.223Z,101435.64
2018-12-06T06:54:54.190Z,101440.66
2018-12-06T06:57:44.303Z,101441.44
2018-12-06T07:00:34.201Z,101441.66
2018-12-06T07:03:24.255Z,101446.27
2018-12-06T07:06:14.294Z,101447.27
2018-12-06T07:09:06.280Z,101456.06
2018-12-06T07:11:56.356Z,101453.84
2018-12-06T07:14:46.646Z,101458.78
2018-12-06T07:17:36.623Z,101454.02
2018-12-06T07:20:26.512Z,101451.81
2018-12-06T07:23:16.209Z,101454.81
2018-12-06T07:26:06.117Z,101447.08
2018-12-06T07:28:57.222Z,101446.69
2018-12-06T07:31:47.268Z,101458.30
2018-12-06T07:34:37.284Z,101444.73
2018-12-06T07:37:28.078Z,101453.02
2018-12-06T07:40:17.930Z,101446.75
2018-12-06T07:43:07.888Z,101443.97
2018-12-06T07:46:04.018Z,101445.56
2018-12-06T07:48:55.065Z,101441.30
2018-12-06T07:51:45.953Z,101444.66
2018-12-06T07:54:36.792Z,101445.91
2018-12-06T07:57:26.738Z,101447.13
2018-12-06T08:00:16.714Z,101448.20
2018-12-06T08:03:06.765Z,101451.49
2018-12-06T08:05:56.711Z,101450.77
2018-12-06T08:08:47.581Z,101458.55
2018-12-06T08:11:38.706Z,101454.48
2018-12-06T08:14:29.807Z,101446.98
2018-12-06T08:17:20.766Z,101450.42
2018-12-06T08:20:11.800Z,101453.38
2018-12-06T08:23:02.810Z,101457.34
2018-12-06T08:25:52.881Z,101456.66
2018-12-06T08:28:42.734Z,101459.91
2018-12-06T08:31:32.773Z,101464.01
2018-12-06T08:34:23.883Z,101455.59
2018-12-06T08:37:14.068Z,101455.21
2018-12-06T08:40:04.070Z,101464.25
2018-12-06T08:42:53.981Z,101467.64
2018-12-06T08:45:43.998Z,101465.00
2018-12-06T08:48:33.981Z,101461.73
2018-12-06T08:51:24.005Z,101456.48
2018-12-06T08:54:14.051Z,101463.38
2018-12-06T08:57:04.138Z,101464.98
2018-12-06T08:59:54.112Z,101457.03
2018-12-06T09:02:45.329Z,101464.02
2018-12-06T09:05:36.031Z,101457.77
2018-12-06T09:08:26.097Z,101451.52
2018-12-06T09:11:16.140Z,101451.89
2018-12-06T09:14:06.003Z,101451.13
2018-12-06T09:16:55.903Z,101449.88
2018-12-06T09:19:46.040Z,101439.02
2018-12-06T09:22:35.911Z,101440.78
2018-12-06T09:25:26.068Z,101436.63
2018-12-06T09:28:17.069Z,101437.88
2018-12-06T09:31:07.054Z,101434.03
2018-12-06T09:34:07.883Z,101437.21
2018-12-06T09:36:58.291Z,101428.70
2018-12-06T09:39:59.320Z,101421.69
2018-12-06T09:42:49.512Z,101417.55
2018-12-06T09:45:39.692Z,101415.31
2018-12-06T09:48:29.802Z,101412.22
2018-12-06T09:51:20.723Z,101410.28
2018-12-06T09:54:10.535Z,101414.14
2018-12-06T09:57:00.777Z,101416.56
2018-12-06T09:59:51.228Z,101408.34
2018-12-06T10:02:41.051Z,101398.23
2018-12-06T10:05:31.202Z,101396.15
2018-12-06T10:08:21.032Z,101395.02
2018-12-06T10:11:11.099Z,101386.11
2018-12-06T10:14:00.895Z,101388.88
2018-12-06T10:16:50.982Z,101386.03
2018-12-06T10:19:40.951Z,101384.28
2018-12-06T10:22:32.795Z,101379.17
2018-12-06T10:25:23.706Z,101377.42
2018-12-06T10:28:13.571Z,101372.24
2018-12-06T10:31:03.694Z,101369.95
2018-12-06T10:33:53.988Z,101365.37
2018-12-06T10:36:44.909Z,101365.57
2018-12-06T10:39:34.737Z,101368.75
2018-12-06T10:43:05.620Z,101359.56
2018-12-06T10:45:56.237Z,101363.19
2018-12-06T10:48:46.192Z,101364.31
2018-12-06T10:51:43.767Z,101359.84
2018-12-06T10:54:34.407Z,101350.23
2018-12-06T10:57:25.482Z,101348.83
2018-12-06T11:00:20.665Z,101347.50
2018-12-06T11:03:14.453Z,101349.13
2018-12-06T11:06:05.360Z,101337.47
2018-12-06T11:08:55.432Z,101342.65
2018-12-06T11:11:46.193Z,101341.31
2018-12-06T11:14:36.980Z,101338.06
2018-12-06T11:17:26.744Z,101334.05
2018-12-06T11:20:16.725Z,101335.09
2018-12-06T11:23:07.553Z,101329.36
2018-12-06T11:25:57.436Z,101329.26
2018-12-06T11:28:47.358Z,101326.20
2018-12-06T11:31:37.436Z,101325.05
2018-12-06T11:34:27.459Z,101324.25
2018-12-06T11:37:18.306Z,101327.30
2018-12-06T11:40:08.300Z,101320.86
2018-12-06T11:42:58.455Z,101324.87
2018-12-06T11:45:49.447Z,101313.96
2018-12-06T11:48:40.425Z,101314.27
2018-12-06T11:51:30.338Z,101311.61
2018-12-06T11:54:20.518Z,101307.69
2018-12-06T11:57:11.321Z,101311.98
2018-12-06T12:00:01.423Z,101305.20
2018-12-06T12:02:53.128Z,101302.47
2018-12-06T12:05:43.335Z,101300.28
2018-12-06T12:08:33.417Z,101297.33
2018-12-06T12:11:24.277Z,101297.63
2018-12-06T12:14:14.159Z,101294.75
2018-12-06T12:17:04.376Z,101288.55
2018-12-06T12:19:54.477Z,101295.34
2018-12-06T12:22:45.363Z,101299.72
2018-12-06T12:25:36.306Z,101297.34
2018-12-06T12:28:27.011Z,101292.77
2018-12-06T12:31:16.835Z,101297.14
2018-12-06T12:34:07.865Z,101295.44
2018-12-06T12:36:58.531Z,101293.89
2018-12-06T12:39:48.602Z,101293.12
2018-12-06T12:42:38.637Z,101299.25
2018-12-06T12:45:28.962Z,101302.70
2018-12-06T12:48:18.838Z,101306.41
2018-12-06T12:51:09.572Z,101306.59
2018-12-06T12:54:00.180Z,101303.27
2018-12-06T12:56:50.128Z,101297.72
2018-12-06T12:59:41.722Z,101300.17
2018-12-06T13:02:32.346Z,101301.68
2018-12-06T13:05:22.607Z,101303.91
2018-12-06T13:08:13.493Z,101302.86
2018-12-06T13:11:04.223Z,101301.89
2018-12-06T13:13:55.044Z,101297.28
2018-12-06T13:16:44.875Z,101299.34
2018-12-06T13:19:34.896Z,101304.13
2018-12-06T13:22:26.042Z,101302.70
2018-12-06T13:25:15.846Z,101300.33
2018-12-06T13:28:06.632Z,101303.77
2018-12-06T13:30:56.774Z,101309.47
2018-12-06T13:33:47.415Z,101304.12
2018-12-06T13:36:37.390Z,101302.86
2018-12-06T13:39:28.922Z,101304.34
2018-12-06T13:42:23.475Z,101299.99
2018-12-06T13:45:11.883Z,101307.61
2018-12-06T13:48:01.949Z,101304.43
2018-12-06T13:50:51.696Z,101299.39
2018-12-06T13:53:41.710Z,101303.89
2018-12-06T13:56:31.591Z,101300.63
2018-12-06T13:59:21.868Z,101309.90
2018-12-06T14:02:12.379Z,101305.11
2018-12-06T14:05:02.547Z,101304.17
2018-12-06T14:07:52.669Z,101307.02
2018-12-06T14:10:42.781Z,101310.16
2018-12-06T14:13:32.846Z,101310.60
2018-12-06T14:16:22.910Z,101312.38
2018-12-06T14:19:12.753Z,101310.08
2018-12-06T14:22:02.682Z,101318.59
2018-12-06T14:24:52.573Z,101321.69
2018-12-06T14:27:42.741Z,101326.03
2018-12-06T14:30:32.837Z,101322.52
2018-12-06T14:33:22.814Z,101324.84
2018-12-06T14:36:13.506Z,101333.95
2018-12-06T14:39:04.987Z,101326.13
2018-12-06T14:41:56.833Z,101328.74
2018-12-06T14:44:46.956Z,101332.80
2018-12-06T14:47:36.827Z,101325.75
2018-12-06T14:50:26.915Z,101336.06
2018-12-06T14:53:17.915Z,101336.64
2018-12-06T14:56:08.625Z,101336.97
2018-12-06T14:58:58.305Z,101337.92
2018-12-06T15:01:48.391Z,101335.25
2018-12-06T15:04:38.133Z,101333.14
2018-12-06T15:07:28.130Z,101334.59
2018-12-06T15:10:17.940Z,101339.66
2018-12-06T15:13:07.731Z,101344.45
2018-12-06T15:15:57.717Z,101343.53
2018-12-06T15:18:48.457Z,101344.97
2018-12-06T15:21:38.643Z,101350.51
2018-12-06T15:24:28.645Z,101350.82
2018-12-06T15:27:20.043Z,101348.13
2018-12-06T15:30:11.965Z,101358.05
2018-12-06T15:33:02.307Z,101353.99
2018-12-06T15:35:52.157Z,101358.08
2018-12-06T15:38:42.144Z,101360.84
2018-12-06T15:41:32.571Z,101360.77
2018-12-06T15:44:22.957Z,101359.37
2018-12-06T15:47:13.011Z,101356.53
2018-12-06T15:50:02.867Z,101351.56
2018-12-06T15:52:52.781Z,101360.70
2018-12-06T15:55:43.666Z,101361.63
2018-12-06T15:58:34.526Z,101363.16
2018-12-06T16:01:24.334Z,101364.03
2018-12-06T16:04:14.218Z,101364.84
2018-12-06T16:07:04.082Z,101366.39
2018-12-06T16:09:54.469Z,101370.97
2018-12-06T16:12:44.446Z,101369.05
2018-12-06T16:15:34.324Z,101370.02
2018-12-06T16:18:24.303Z,101371.58
2018-12-06T16:21:14.232Z,101378.16
2018-12-06T16:24:04.154Z,101375.55
2018-12-06T16:26:54.014Z,101376.03
2018-12-06T16:29:51.418Z,101382.67
2018-12-06T16:32:36.054Z,101383.00
2018-12-06T16:35:26.972Z,101382.42
2018-12-06T16:38:17.931Z,101390.50
2018-12-06T16:41:08.735Z,101395.44
2018-12-06T16:43:59.650Z,101402.96
2018-12-06T16:46:49.590Z,101398.23
2018-12-06T16:49:40.360Z,101404.64
2018-12-06T16:52:30.539Z,101406.95
2018-12-06T16:55:20.467Z,101405.23
2018-12-06T16:58:10.366Z,101402.91
2018-12-06T17:01:00.675Z,101409.61
2018-12-06T17:03:52.391Z,101412.92
2018-12-06T17:06:42.423Z,101414.72
2018-12-06T17:09:32.356Z,101414.99
2018-12-06T17:12:22.668Z,101421.11
2018-12-06T17:15:13.637Z,101415.89
2018-12-06T17:18:03.787Z,101422.70
2018-12-06T17:20:54.559Z,101427.27
2018-12-06T17:23:44.719Z,101421.59
2018-12-06T17:26:35.546Z,101423.03
2018-12-06T17:29:25.704Z,101430.41
2018-12-06T17:32:16.346Z,101436.23
2018-12-06T17:35:07.048Z,101431.82
2018-12-06T17:37:57.304Z,101430.74
2018-12-06T17:40:47.347Z,101433.95
2018-12-06T17:43:37.547Z,101440.39
2018-12-06T17:46:27.527Z,101442.30
2018-12-06T17:49:17.334Z,101439.27
2018-12-06T17:52:07.820Z,101445.70
2018-12-06T17:54:58.514Z,101448.88
2018-12-06T17:57:49.507Z,101444.27
2018-12-06T18:00:39.375Z,101450.23
2018-12-06T18:03:29.323Z,101446.36
2018-12-06T18:06:19.162Z,101450.34
2018-12-06T18:09:09.901Z,101448.78
2018-12-06T18:11:59.946Z,101453.87
2018-12-06T18:14:50.034Z,101459.84
2018-12-06T18:17:39.919Z,101451.84
2018-12-06T18:20:29.787Z,101465.70
2018-12-06T18:23:20.631Z,101471.11
2018-12-06T18:26:11.621Z,101467.91
2018-12-06T18:29:01.584Z,101465.06
2018-12-06T18:31:51.621Z,101463.66
2018-12-06T18:34:42.414Z,101469.45
2018-12-06T18:37:33.207Z,101469.53
2018-12-06T18:40:24.135Z,101473.93
2018-12-06T18:43:14.004Z,101473.47
2018-12-06T18:46:03.818Z,101478.39
2018-12-06T18:48:53.831Z,101485.47
2018-12-06T18:51:43.699Z,101477.10
2018-12-06T18:54:33.704Z,101479.49
2018-12-06T18:57:24.402Z,101476.27
2018-12-06T19:00:14.490Z,101474.55
2018-12-06T19:03:05.111Z,101473.06
2018-12-06T19:05:55.323Z,101482.08
2018-12-06T19:08:46.126Z,101485.77
2018-12-06T19:11:36.355Z,101481.67
2018-12-06T19:14:27.176Z,101491.25
2018-12-06T19:17:17.755Z,101489.05
2018-12-06T19:20:08.249Z,101493.04
2018-12-06T19:22:58.950Z,101497.76
2018-12-06T19:25:48.784Z,101493.58
2018-12-06T19:28:39.017Z,101496.47
2018-12-06T19:31:28.967Z,101493.04
2018-12-06T19:34:19.779Z,101489.46
2018-12-06T19:37:10.750Z,101489.46
2018-12-06T19:40:01.463Z,101495.22
2018-12-06T19:42:51.274Z,101495.94
2018-12-06T19:45:41.396Z,101497.31
2018-12-06T19:48:31.419Z,101494.19
2018-12-06T19:51:22.350Z,101501.61
2018-12-06T19:54:12.963Z,101493.70
2018-12-06T19:57:03.748Z,101501.61
2018-12-06T19:59:53.570Z,101496.55
2018-12-06T20:02:44.434Z,101498.27
2018-12-06T20:05:34.252Z,101503.47
2018-12-06T20:08:24.503Z,101506.13
2018-12-06T20:11:15.081Z,101501.34
2018-12-06T20:14:05.171Z,101498.86
2018-12-06T20:16:56.133Z,101503.63
2018-12-06T20:19:46.916Z,101507.23
2018-12-06T20:22:36.907Z,101505.19
2018-12-06T20:25:26.982Z,101504.23
2018-12-06T20:28:17.810Z,101504.58
2018-12-06T20:31:08.671Z,101500.12
2018-12-06T20:33:58.656Z,101505.22
2018-12-06T20:36:49.430Z,101501.55
2018-12-06T20:39:40.338Z,101499.96
2018-12-06T20:42:31.214Z,101505.67
2018-12-06T20:45:21.242Z,101507.70
2018-12-06T20:48:12.135Z,101508.46
2018-12-06T20:51:02.780Z,101505.23
2018-12-06T20:53:52.744Z,101512.45
2018-12-06T20:56:42.634Z,101508.20
2018-12-06T20:59:33.649Z,101515.51
2018-12-06T21:02:23.526Z,101516.80
2018-12-06T21:05:13.653Z,101503.82
2018-12-06T21:08:03.427Z,101507.70
2018-12-06T21:10:53.361Z,101509.98
2018-12-06T21:13:43.289Z,101503.97
2018-12-06T21:16:33.435Z,101512.61
2018-12-06T21:19:24.818Z,101512.27
2018-12-06T21:22:15.710Z,101519.42
2018-12-06T21:25:06.878Z,101520.53
2018-12-06T21:27:57.587Z,101521.66
2018-12-06T21:30:48.186Z,101522.84
2018-12-06T21:33:38.150Z,101524.06
2018-12-06T21:36:27.986Z,101523.77
2018-12-06T21:39:18.927Z,101522.10
2018-12-06T21:42:08.780Z,101531.56
2018-12-06T21:44:58.988Z,101525.91
2018-12-06T21:47:49.764Z,101535.97
2018-12-06T21:50:40.506Z,101533.07
2018-12-06T21:53:31.451Z,101532.27
2018-12-06T21:56:22.322Z,101529.86
2018-12-06T21:59:13.190Z,101534.45
2018-12-06T22:02:14.887Z,101536.80
2018-12-06T22:05:05.161Z,101539.31
2018-12-06T22:07:57.129Z,101536.52
2018-12-06T22:10:46.954Z,101536.13
2018-12-06T22:13:36.906Z,101535.60
2018-12-06T22:16:26.755Z,101535.98
2018-12-06T22:19:17.311Z,101535.19
2018-12-06T22:22:07.610Z,101537.84
2018-12-06T22:24:58.526Z,101530.53
2018-12-06T22:27:49.443Z,101534.66
2018-12-06T22:30:40.359Z,101533.74
2018-12-06T22:33:30.336Z,101533.74
2018-12-06T22:36:20.446Z,101530.73
2018-12-06T22:39:10.312Z,101526.14
2018-12-06T22:42:00.325Z,101528.22
2018-12-06T22:44:50.159Z,101520.17
2018-12-06T22:47:40.163Z,101521.08
2018-12-06T22:50:30.049Z,101521.08
2018-12-06T22:53:20.100Z,101522.69
2018-12-06T22:56:10.125Z,101521.01
2018-12-06T22:59:01.121Z,101525.80
2018-12-06T23:01:51.980Z,101525.27
2018-12-06T23:04:42.676Z,101518.17
2018-12-06T23:07:33.532Z,101520.31
2018-12-06T23:10:23.370Z,101523.88
2018-12-06T23:13:13.395Z,101521.22
2018-12-06T23:16:03.416Z,101524.94
2018-12-06T23:18:53.520Z,101522.97
2018-12-06T23:21:44.394Z,101519.16
2018-12-06T23:24:35.303Z,101518.56
2018-12-06T23:27:25.238Z,101518.98
2018-12-06T23:30:15.849Z,101510.97
2018-12-06T23:33:06.223Z,101517.09
2018-12-06T23:35:55.932Z,101510.38
2018-12-06T23:38:46.830Z,101520.41
2018-12-06T23:41:36.890Z,101515.63
2018-12-06T23:44:27.724Z,101518.42
2018-12-06T23:47:18.514Z,101520.03
2018-12-06T23:50:08.494Z,101529.58
2018-12-06T23:52:58.294Z,101533.84
2018-12-06T23:55:48.596Z,101540.34
2018-12-06T23:58:40.470Z,101544.05
